createdAt,value
2023-05-14T00:00:42.198Z,99.99
2023-05-14T00:01:42.035Z,99.99
2023-05-14T00:02:42.233Z,99.99
2023-05-14T00:03:42.059Z,99.99
2023-05-14T00:04:42.020Z,99.99
2023-05-14T00:05:41.995Z,99.99
2023-05-14T00:06:41.972Z,99.99
2023-05-14T00:07:42.346Z,99.99
2023-05-14T00:08:41.994Z,99.99
2023-05-14T00:09:41.937Z,99.99
2023-05-14T00:10:41.957Z,99.99
2023-05-14T00:11:41.909Z,99.99
2023-05-14T00:12:41.888Z,99.99
2023-05-14T00:13:41.904Z,99.99
2023-05-14T00:14:41.879Z,99.99
2023-05-14T00:15:41.911Z,99.99
2023-05-14T00:16:41.876Z,99.99
2023-05-14T00:17:41.916Z,99.99
2023-05-14T00:18:41.961Z,99.99
2023-05-14T00:19:41.854Z,99.99
2023-05-14T00:20:41.832Z,99.99
2023-05-14T00:21:41.839Z,99.99
2023-05-14T00:22:41.813Z,99.99
2023-05-14T00:23:41.819Z,99.99
2023-05-14T00:24:41.788Z,99.99
2023-05-14T00:25:41.788Z,99.99
2023-05-14T00:26:41.789Z,99.99
2023-05-14T00:27:41.801Z,99.99
2023-05-14T00:28:41.771Z,99.99
2023-05-14T00:29:41.733Z,99.99
2023-05-14T00:30:41.760Z,99.99
2023-05-14T00:31:41.809Z,99.99
2023-05-14T00:32:41.736Z,99.99
2023-05-14T00:33:41.674Z,99.99
2023-05-14T00:34:41.675Z,99.99
2023-05-14T00:35:41.690Z,99.99
2023-05-14T00:36:41.692Z,99.99
2023-05-14T00:37:41.686Z,99.99
2023-05-14T00:38:41.652Z,99.99
2023-05-14T00:39:41.641Z,99.99
2023-05-14T00:40:41.627Z,99.99
2023-05-14T00:41:41.646Z,99.99
2023-05-14T00:42:41.678Z,99.99
2023-05-14T00:43:41.609Z,99.99
2023-05-14T00:44:41.620Z,99.99
2023-05-14T00:45:41.557Z,99.99
2023-05-14T00:46:41.654Z,99.99
2023-05-14T00:47:41.599Z,99.99
2023-05-14T00:48:41.560Z,99.99
2023-05-14T00:49:41.507Z,99.99
2023-05-14T00:50:41.535Z,99.99
2023-05-14T00:51:41.506Z,99.99
2023-05-14T00:52:41.545Z,99.99
2023-05-14T00:53:41.514Z,99.99
2023-05-14T00:54:41.519Z,99.99
2023-05-14T00:55:41.522Z,99.99
2023-05-14T00:56:41.478Z,99.99
2023-05-14T00:57:41.438Z,99.99
2023-05-14T00:58:41.491Z,99.99
2023-05-14T00:59:41.427Z,99.99
2023-05-14T01:00:41.438Z,99.99
2023-05-14T01:01:41.418Z,99.99
2023-05-14T01:02:41.463Z,99.99
2023-05-14T01:03:41.474Z,99.99
2023-05-14T01:04:41.365Z,99.99
2023-05-14T01:05:41.349Z,99.99
2023-05-14T01:06:41.362Z,99.99
2023-05-14T01:07:41.338Z,99.99
2023-05-14T01:08:41.359Z,99.99
2023-05-14T01:09:41.333Z,99.99
2023-05-14T01:10:41.323Z,99.99
2023-05-14T01:11:41.330Z,99.99
2023-05-14T01:12:41.315Z,99.99
2023-05-14T01:13:41.289Z,99.99
2023-05-14T01:14:41.427Z,99.99
2023-05-14T01:15:41.260Z,99.99
2023-05-14T01:16:41.282Z,99.99
2023-05-14T01:17:41.287Z,99.99
2023-05-14T01:18:41.235Z,99.99
2023-05-14T01:19:41.199Z,99.99
2023-05-14T01:20:41.228Z,99.99
2023-05-14T01:21:41.240Z,99.99
2023-05-14T01:22:41.191Z,99.99
2023-05-14T01:23:41.182Z,99.99
2023-05-14T01:24:41.172Z,99.99
2023-05-14T01:25:41.171Z,99.99
2023-05-14T01:26:41.184Z,99.99
2023-05-14T01:27:41.126Z,99.99
2023-05-14T01:28:41.132Z,99.99
2023-05-14T01:29:41.154Z,99.99
2023-05-14T01:30:41.108Z,99.99
2023-05-14T01:31:41.191Z,99.99
2023-05-14T01:32:41.161Z,99.99
2023-05-14T01:33:41.111Z,99.99
2023-05-14T01:34:41.069Z,99.99
2023-05-14T01:35:41.050Z,99.99
2023-05-14T01:36:41.090Z,99.99
2023-05-14T01:37:41.034Z,99.99
2023-05-14T01:38:41.030Z,99.99
2023-05-14T01:39:41.028Z,99.99
2023-05-14T01:40:41.065Z,99.99
2023-05-14T01:41:41.067Z,99.99
2023-05-14T01:42:40.994Z,99.99
2023-05-14T01:43:41.075Z,99.99
2023-05-14T01:44:40.960Z,99.99
2023-05-14T01:45:40.989Z,99.99
2023-05-14T01:46:41.099Z,99.99
2023-05-14T01:47:40.994Z,99.99
2023-05-14T01:48:40.970Z,99.99
2023-05-14T01:49:40.970Z,99.99
2023-05-14T01:50:40.913Z,99.99
2023-05-14T01:51:40.922Z,99.99
2023-05-14T01:52:40.897Z,99.99
2023-05-14T01:53:40.859Z,99.99
2023-05-14T01:54:40.882Z,99.99
2023-05-14T01:55:40.847Z,99.99
2023-05-14T01:56:40.843Z,99.99
2023-05-14T01:57:40.825Z,99.99
2023-05-14T01:58:40.867Z,99.99
2023-05-14T01:59:40.852Z,99.99
2023-05-14T02:00:40.783Z,99.99
2023-05-14T02:01:40.832Z,99.99
2023-05-14T02:02:40.870Z,99.99
2023-05-14T02:03:40.845Z,99.99
2023-05-14T02:04:40.796Z,99.99
2023-05-14T02:05:40.729Z,99.99
2023-05-14T02:06:40.740Z,99.99
2023-05-14T02:07:40.727Z,99.99
2023-05-14T02:08:40.724Z,99.99
2023-05-14T02:09:40.720Z,99.99
2023-05-14T02:10:40.712Z,99.99
2023-05-14T02:11:40.702Z,99.99
2023-05-14T02:12:40.775Z,99.99
2023-05-14T02:13:40.657Z,99.99
2023-05-14T02:14:40.685Z,99.99
2023-05-14T02:15:40.687Z,99.99
2023-05-14T02:16:40.629Z,99.99
2023-05-14T02:17:40.647Z,99.99
2023-05-14T02:18:40.668Z,99.99
2023-05-14T02:19:40.628Z,99.99
2023-05-14T02:20:40.594Z,99.99
2023-05-14T02:21:40.581Z,99.99
2023-05-14T02:22:40.576Z,99.99
2023-05-14T02:23:42.217Z,99.99
2023-05-14T02:24:40.626Z,99.99
2023-05-14T02:25:40.585Z,99.99
2023-05-14T02:26:40.558Z,99.99
2023-05-14T02:27:40.534Z,99.99
2023-05-14T02:28:40.530Z,99.99
2023-05-14T02:29:40.517Z,99.99
2023-05-14T02:30:40.523Z,99.99
2023-05-14T02:31:40.546Z,99.99
2023-05-14T02:32:40.543Z,99.99
2023-05-14T02:33:40.493Z,99.99
2023-05-14T02:34:40.454Z,99.99
2023-05-14T02:35:40.437Z,99.99
2023-05-14T02:36:40.478Z,99.99
2023-05-14T02:37:40.465Z,99.99
2023-05-14T02:38:40.439Z,99.99
2023-05-14T02:39:40.450Z,99.99
2023-05-14T02:40:40.420Z,99.99
2023-05-14T02:41:40.370Z,99.99
2023-05-14T02:42:40.391Z,99.99
2023-05-14T02:43:40.383Z,99.99
2023-05-14T02:44:40.351Z,99.99
2023-05-14T02:45:40.347Z,99.99
2023-05-14T02:46:40.428Z,99.99
2023-05-14T02:47:40.382Z,99.99
2023-05-14T02:48:40.328Z,99.99
2023-05-14T02:49:40.262Z,99.99
2023-05-14T02:50:40.348Z,99.99
2023-05-14T02:51:40.309Z,99.99
2023-05-14T02:52:40.865Z,99.99
2023-05-14T02:53:40.254Z,99.99
2023-05-14T02:54:40.262Z,99.99
2023-05-14T02:55:40.261Z,99.99
2023-05-14T02:56:40.238Z,99.99
2023-05-14T02:57:40.214Z,99.99
2023-05-14T02:58:40.224Z,99.99
2023-05-14T02:59:40.390Z,99.99
2023-05-14T03:00:40.150Z,99.99
2023-05-14T03:01:40.109Z,99.99
2023-05-14T03:02:40.276Z,99.99
2023-05-14T03:03:40.138Z,99.99
2023-05-14T03:04:40.766Z,99.99
2023-05-14T03:05:40.081Z,99.99
2023-05-14T03:06:40.081Z,99.99
2023-05-14T03:07:40.085Z,99.99
2023-05-14T03:08:40.103Z,99.99
2023-05-14T03:09:40.065Z,99.99
2023-05-14T03:10:40.015Z,99.99
2023-05-14T03:11:40.034Z,99.99
2023-05-14T03:12:40.055Z,99.99
2023-05-14T03:13:40.025Z,99.99
2023-05-14T03:14:39.997Z,99.99
2023-05-14T03:15:39.975Z,99.99
2023-05-14T03:16:40.014Z,99.99
2023-05-14T03:17:39.990Z,99.99
2023-05-14T03:18:39.978Z,99.99
2023-05-14T03:19:39.940Z,99.99
2023-05-14T03:20:39.933Z,99.99
2023-05-14T03:21:39.940Z,99.99
2023-05-14T03:22:39.922Z,99.99
2023-05-14T03:23:39.885Z,99.99
2023-05-14T03:24:39.938Z,99.99
2023-05-14T03:25:39.928Z,99.99
2023-05-14T03:26:39.872Z,99.99
2023-05-14T03:27:39.911Z,99.99
2023-05-14T03:28:39.858Z,99.99
2023-05-14T03:29:39.875Z,99.99
2023-05-14T03:30:39.885Z,99.99
2023-05-14T03:31:39.800Z,99.99
2023-05-14T03:32:39.996Z,99.99
2023-05-14T03:33:39.798Z,99.99
2023-05-14T03:34:39.787Z,99.99
2023-05-14T03:35:39.788Z,99.99
2023-05-14T03:36:39.770Z,99.99
2023-05-14T03:37:39.731Z,99.99
2023-05-14T03:38:39.776Z,99.99
2023-05-14T03:39:39.772Z,99.99
2023-05-14T03:40:39.717Z,99.99
2023-05-14T03:41:39.730Z,99.99
2023-05-14T03:42:39.814Z,99.99
2023-05-14T03:43:39.737Z,99.99
2023-05-14T03:44:39.695Z,99.99
2023-05-14T03:45:39.665Z,99.99
2023-05-14T03:46:39.658Z,99.99
2023-05-14T03:47:39.709Z,99.99
2023-05-14T03:48:39.699Z,99.99
2023-05-14T03:49:40.364Z,99.99
2023-05-14T03:50:39.661Z,99.99
2023-05-14T03:51:39.580Z,99.99
2023-05-14T03:52:39.611Z,99.99
2023-05-14T03:53:39.597Z,99.99
2023-05-14T03:54:39.574Z,99.99
2023-05-14T03:55:39.545Z,99.99
2023-05-14T03:56:39.606Z,99.99
2023-05-14T03:57:39.528Z,99.99
2023-05-14T03:58:39.558Z,99.99
2023-05-14T03:59:39.568Z,99.99
2023-05-14T04:00:39.549Z,99.99
2023-05-14T04:01:39.489Z,99.99
2023-05-14T04:02:39.678Z,99.99
2023-05-14T04:03:39.711Z,99.99
2023-05-14T04:04:39.550Z,99.99
2023-05-14T04:05:39.446Z,99.99
2023-05-14T04:06:39.449Z,99.99
2023-05-14T04:07:39.409Z,99.99
2023-05-14T04:08:39.440Z,99.99
2023-05-14T04:09:39.393Z,99.99
2023-05-14T04:10:39.435Z,99.99
2023-05-14T04:11:39.390Z,99.99
2023-05-14T04:12:39.377Z,99.99
2023-05-14T04:13:39.397Z,99.99
2023-05-14T04:14:39.375Z,99.99
2023-05-14T04:15:39.433Z,99.99
2023-05-14T04:16:39.405Z,99.99
2023-05-14T04:17:39.342Z,99.99
2023-05-14T04:18:39.362Z,99.99
2023-05-14T04:19:39.354Z,99.99
2023-05-14T04:20:39.349Z,99.99
2023-05-14T04:21:39.284Z,99.99
2023-05-14T04:22:39.278Z,99.99
2023-05-14T04:23:39.254Z,99.99
2023-05-14T04:24:39.272Z,99.99
2023-05-14T04:25:39.275Z,99.99
2023-05-14T04:26:39.249Z,99.99
2023-05-14T04:27:39.232Z,99.99
2023-05-14T04:28:39.226Z,99.99
2023-05-14T04:29:39.258Z,99.99
2023-05-14T04:30:39.171Z,99.99
2023-05-14T04:31:39.243Z,99.99
2023-05-14T04:32:39.260Z,99.99
2023-05-14T04:33:39.171Z,99.99
2023-05-14T04:34:39.133Z,99.99
2023-05-14T04:35:39.203Z,99.99
2023-05-14T04:36:39.123Z,99.99
2023-05-14T04:37:39.141Z,99.99
2023-05-14T04:38:39.103Z,99.99
2023-05-14T04:39:39.088Z,99.99
2023-05-14T04:40:39.124Z,99.99
2023-05-14T04:41:39.115Z,99.99
2023-05-14T04:42:39.069Z,99.99
2023-05-14T04:43:39.094Z,99.99
2023-05-14T04:44:39.131Z,99.99
2023-05-14T04:45:39.142Z,99.99
2023-05-14T04:46:39.048Z,99.99
2023-05-14T04:47:39.100Z,99.99
2023-05-14T04:48:38.979Z,99.99
2023-05-14T04:49:39.051Z,99.99
2023-05-14T04:50:39.011Z,99.99
2023-05-14T04:51:39.030Z,99.99
2023-05-14T04:52:38.944Z,99.99
2023-05-14T04:53:38.938Z,99.99
2023-05-14T04:54:38.995Z,99.99
2023-05-14T04:55:38.958Z,99.99
2023-05-14T04:56:38.972Z,99.99
2023-05-14T04:57:38.906Z,99.99
2023-05-14T04:58:38.932Z,99.99
2023-05-14T04:59:38.885Z,99.99
2023-05-14T05:00:38.902Z,99.99
2023-05-14T05:01:38.907Z,99.99
2023-05-14T05:02:38.955Z,99.99
2023-05-14T05:03:38.873Z,99.99
2023-05-14T05:04:38.833Z,99.99
2023-05-14T05:05:38.826Z,99.99
2023-05-14T05:06:38.803Z,99.99
2023-05-14T05:07:38.832Z,99.99
2023-05-14T05:08:38.800Z,99.99
2023-05-14T05:09:38.825Z,99.99
2023-05-14T05:10:38.809Z,99.99
2023-05-14T05:11:38.818Z,99.99
2023-05-14T05:12:38.777Z,99.99
2023-05-14T05:13:38.785Z,99.99
2023-05-14T05:14:38.720Z,99.99
2023-05-14T05:15:38.757Z,99.99
2023-05-14T05:16:38.726Z,99.99
2023-05-14T05:17:38.749Z,99.99
2023-05-14T05:18:38.740Z,99.99
2023-05-14T05:19:43.565Z,99.99
2023-05-14T05:20:38.677Z,99.99
2023-05-14T05:21:38.698Z,99.99
2023-05-14T05:22:38.653Z,99.99
2023-05-14T05:23:38.690Z,99.99
2023-05-14T05:24:38.645Z,99.99
2023-05-14T05:25:38.655Z,99.99
2023-05-14T05:26:38.634Z,99.99
2023-05-14T05:27:38.630Z,99.99
2023-05-14T05:28:38.630Z,99.99
2023-05-14T05:29:38.626Z,99.99
2023-05-14T05:30:38.598Z,99.99
2023-05-14T05:31:38.617Z,99.99
2023-05-14T05:32:38.630Z,99.99
2023-05-14T05:33:38.556Z,99.99
2023-05-14T05:34:38.528Z,99.99
2023-05-14T05:35:38.573Z,99.99
2023-05-14T05:36:38.514Z,99.99
2023-05-14T05:37:38.552Z,99.99
2023-05-14T05:38:38.546Z,99.99
2023-05-14T05:39:38.546Z,99.99
2023-05-14T05:40:38.488Z,99.99
2023-05-14T05:41:38.492Z,99.99
2023-05-14T05:42:38.459Z,99.99
2023-05-14T05:43:38.488Z,99.99
2023-05-14T05:44:38.447Z,99.99
2023-05-14T05:45:38.444Z,99.99
2023-05-14T05:46:38.469Z,99.99
2023-05-14T05:47:38.429Z,99.99
2023-05-14T05:48:38.387Z,99.99
2023-05-14T05:49:38.393Z,99.99
2023-05-14T05:50:38.372Z,99.99
2023-05-14T05:51:38.371Z,99.99
2023-05-14T05:52:38.355Z,99.99
2023-05-14T05:53:38.374Z,99.99
2023-05-14T05:54:38.340Z,99.99
2023-05-14T05:55:38.333Z,99.99
2023-05-14T05:56:38.301Z,99.99
2023-05-14T05:57:38.273Z,99.99
2023-05-14T05:58:38.338Z,99.99
2023-05-14T05:59:38.304Z,99.99
2023-05-14T06:00:38.250Z,99.99
2023-05-14T06:01:38.297Z,99.88
2023-05-14T06:02:38.343Z,97.28
2023-05-14T06:03:38.240Z,96.97
2023-05-14T06:04:38.244Z,97.28
2023-05-14T06:05:38.303Z,97.49
2023-05-14T06:06:38.242Z,97.85
2023-05-14T06:07:38.280Z,97.95
2023-05-14T06:08:38.208Z,97.95
2023-05-14T06:09:38.190Z,97.74
2023-05-14T06:10:38.153Z,97.74
2023-05-14T06:11:38.154Z,97.24
2023-05-14T06:12:38.153Z,97.13
2023-05-14T06:13:38.214Z,97.19
2023-05-14T06:14:38.236Z,97.19
2023-05-14T06:15:38.210Z,97.39
2023-05-14T06:16:38.160Z,97.29
2023-05-14T06:17:38.154Z,97.60
2023-05-14T06:18:38.168Z,98.06
2023-05-14T06:19:38.086Z,98.06
2023-05-14T06:20:38.074Z,96.02
2023-05-14T06:21:38.063Z,93.77
2023-05-14T06:22:38.042Z,93.47
2023-05-14T06:23:38.110Z,93.43
2023-05-14T06:24:38.075Z,92.91
2023-05-14T06:25:38.021Z,93.63
2023-05-14T06:26:38.002Z,94.34
2023-05-14T06:27:38.006Z,95.21
2023-05-14T06:28:37.962Z,95.12
2023-05-14T06:29:38.017Z,94.40
2023-05-14T06:30:37.950Z,92.72
2023-05-14T06:31:37.982Z,90.28
2023-05-14T06:32:37.955Z,90.08
2023-05-14T06:33:38.825Z,91.20
2023-05-14T06:34:38.029Z,90.34
2023-05-14T06:35:37.923Z,90.85
2023-05-14T06:36:37.912Z,91.36
2023-05-14T06:37:37.911Z,91.42
2023-05-14T06:38:37.870Z,90.91
2023-05-14T06:39:37.883Z,91.22
2023-05-14T06:40:37.874Z,91.42
2023-05-14T06:41:37.851Z,89.99
2023-05-14T06:42:37.860Z,86.74
2023-05-14T06:43:37.828Z,87.24
2023-05-14T06:44:37.851Z,87.81
2023-05-14T06:45:37.921Z,89.24
2023-05-14T06:46:37.810Z,89.14
2023-05-14T06:47:37.830Z,88.08
2023-05-14T06:48:37.841Z,87.87
2023-05-14T06:49:37.789Z,87.67
2023-05-14T06:50:37.760Z,85.90
2023-05-14T06:51:37.725Z,85.80
2023-05-14T06:52:37.733Z,86.10
2023-05-14T06:53:37.732Z,86.37
2023-05-14T06:54:37.802Z,84.34
2023-05-14T06:55:37.709Z,86.07
2023-05-14T06:56:37.677Z,85.92
2023-05-14T06:57:40.500Z,86.63
2023-05-14T06:58:37.672Z,86.02
2023-05-14T06:59:37.669Z,84.40
2023-05-14T07:00:37.640Z,84.26
2023-05-14T07:01:37.711Z,85.27
2023-05-14T07:02:37.662Z,85.17
2023-05-14T07:03:37.705Z,85.13
2023-05-14T07:04:37.712Z,83.51
2023-05-14T07:05:37.643Z,83.20
2023-05-14T07:06:37.606Z,83.67
2023-05-14T07:07:37.627Z,82.56
2023-05-14T07:08:37.591Z,81.81
2023-05-14T07:09:37.636Z,82.52
2023-05-14T07:10:37.530Z,82.48
2023-05-14T07:11:37.561Z,81.06
2023-05-14T07:12:38.453Z,80.15
2023-05-14T07:13:37.562Z,81.46
2023-05-14T07:14:37.520Z,82.38
2023-05-14T07:15:37.526Z,83.35
2023-05-14T07:16:37.519Z,80.68
2023-05-14T07:17:37.543Z,81.39
2023-05-14T07:18:37.544Z,80.64
2023-05-14T07:19:37.474Z,78.11
2023-05-14T07:20:37.434Z,79.33
2023-05-14T07:21:37.450Z,77.37
2023-05-14T07:22:37.475Z,78.58
2023-05-14T07:23:37.478Z,78.38
2023-05-14T07:24:37.420Z,79.49
2023-05-14T07:25:37.403Z,78.38
2023-05-14T07:26:37.421Z,77.67
2023-05-14T07:27:37.410Z,77.26
2023-05-14T07:28:37.395Z,78.44
2023-05-14T07:29:37.392Z,79.15
2023-05-14T07:30:37.404Z,79.46
2023-05-14T07:31:37.432Z,78.14
2023-05-14T07:32:37.337Z,78.14
2023-05-14T07:33:37.384Z,79.96
2023-05-14T07:34:37.297Z,77.53
2023-05-14T07:35:37.332Z,77.80
2023-05-14T07:36:38.081Z,76.79
2023-05-14T07:37:37.301Z,75.98
2023-05-14T07:38:37.262Z,75.13
2023-05-14T07:39:37.272Z,75.81
2023-05-14T07:40:37.346Z,76.62
2023-05-14T07:41:37.272Z,73.45
2023-05-14T07:42:37.623Z,75.27
2023-05-14T07:43:37.264Z,75.03
2023-05-14T07:44:37.263Z,72.88
2023-05-14T07:45:37.221Z,74.39
2023-05-14T07:46:37.195Z,74.35
2023-05-14T07:47:37.218Z,73.11
2023-05-14T07:48:37.196Z,72.47
2023-05-14T07:49:37.155Z,72.07
2023-05-14T07:50:37.191Z,72.54
2023-05-14T07:51:37.212Z,70.03
2023-05-14T07:52:37.138Z,68.91
2023-05-14T07:53:37.161Z,72.34
2023-05-14T07:54:37.105Z,69.62
2023-05-14T07:55:37.084Z,69.62
2023-05-14T07:56:37.149Z,69.69
2023-05-14T07:57:37.077Z,69.49
2023-05-14T07:58:37.062Z,69.99
2023-05-14T07:59:37.140Z,70.56
2023-05-14T08:00:37.054Z,68.55
2023-05-14T08:01:39.159Z,68.65
2023-05-14T08:02:37.075Z,66.74
2023-05-14T08:03:37.084Z,68.35
2023-05-14T08:04:37.561Z,68.25
2023-05-14T08:05:36.997Z,69.25
2023-05-14T08:06:37.086Z,71.13
2023-05-14T08:07:36.990Z,70.73
2023-05-14T08:08:37.004Z,68.88
2023-05-14T08:09:36.951Z,68.08
2023-05-14T08:10:36.957Z,67.08
2023-05-14T08:11:36.913Z,69.09
2023-05-14T08:12:36.925Z,68.99
2023-05-14T08:13:36.909Z,67.38
2023-05-14T08:14:36.924Z,67.98
2023-05-14T08:15:36.856Z,67.38
2023-05-14T08:16:36.934Z,68.18
2023-05-14T08:17:36.923Z,68.05
2023-05-14T08:18:36.885Z,69.26
2023-05-14T08:19:36.865Z,70.03
2023-05-14T08:20:36.813Z,67.42
2023-05-14T08:21:36.846Z,65.18
2023-05-14T08:22:36.809Z,63.07
2023-05-14T08:23:36.874Z,64.15
2023-05-14T08:24:36.796Z,64.22
2023-05-14T08:25:36.811Z,63.28
2023-05-14T08:26:36.820Z,62.85
2023-05-14T08:27:36.755Z,63.48
2023-05-14T08:28:36.736Z,63.98
2023-05-14T08:29:36.784Z,65.28
2023-05-14T08:30:36.822Z,61.15
2023-05-14T08:31:36.730Z,59.55
2023-05-14T08:32:37.067Z,59.45
2023-05-14T08:33:36.689Z,59.52
2023-05-14T08:34:36.713Z,58.52
2023-05-14T08:35:36.682Z,59.82
2023-05-14T08:36:36.693Z,58.52
2023-05-14T08:37:36.672Z,57.72
2023-05-14T08:38:36.654Z,56.72
2023-05-14T08:39:36.630Z,60.62
2023-05-14T08:40:36.674Z,58.62
2023-05-14T08:41:36.623Z,56.85
2023-05-14T08:42:36.638Z,61.65
2023-05-14T08:43:36.614Z,60.88
2023-05-14T08:44:36.685Z,60.41
2023-05-14T08:45:36.598Z,64.12
2023-05-14T08:46:36.560Z,63.71
2023-05-14T08:47:36.578Z,61.51
2023-05-14T08:48:40.817Z,63.51
2023-05-14T08:49:36.534Z,62.01
2023-05-14T08:50:36.534Z,67.02
2023-05-14T08:51:37.412Z,64.01
2023-05-14T08:52:36.506Z,62.41
2023-05-14T08:53:36.517Z,65.15
2023-05-14T08:54:36.538Z,68.05
2023-05-14T08:55:36.500Z,64.34
2023-05-14T08:56:36.473Z,64.45
2023-05-14T08:57:36.496Z,64.65
2023-05-14T08:58:36.526Z,61.21
2023-05-14T08:59:36.443Z,59.20
2023-05-14T09:00:36.445Z,57.70
2023-05-14T09:01:36.424Z,56.80
2023-05-14T09:02:36.458Z,59.28
2023-05-14T09:03:36.406Z,59.98
2023-05-14T09:04:36.418Z,60.58
2023-05-14T09:05:36.373Z,62.38
2023-05-14T09:06:36.368Z,61.98
2023-05-14T09:07:36.389Z,58.18
2023-05-14T09:08:36.400Z,59.78
2023-05-14T09:09:36.305Z,58.28
2023-05-14T09:10:36.358Z,55.17
2023-05-14T09:11:36.398Z,57.75
2023-05-14T09:12:36.338Z,55.94
2023-05-14T09:13:36.312Z,55.24
2023-05-14T09:14:36.255Z,55.15
2023-05-14T09:15:36.954Z,56.65
2023-05-14T09:16:36.573Z,57.55
2023-05-14T09:17:36.323Z,57.45
2023-05-14T09:18:36.285Z,54.64
2023-05-14T09:19:36.224Z,54.55
2023-05-14T09:20:36.184Z,53.92
2023-05-14T09:21:36.249Z,54.44
2023-05-14T09:22:36.214Z,56.22
2023-05-14T09:23:36.170Z,55.94
2023-05-14T09:24:36.179Z,56.02
2023-05-14T09:25:36.174Z,54.82
2023-05-14T09:26:36.225Z,57.02
2023-05-14T09:27:36.130Z,58.02
2023-05-14T09:28:36.148Z,60.35
2023-05-14T09:29:36.111Z,60.42
2023-05-14T09:30:36.123Z,56.52
2023-05-14T09:31:36.175Z,55.62
2023-05-14T09:32:36.128Z,56.02
2023-05-14T09:33:36.083Z,56.09
2023-05-14T09:34:36.129Z,55.09
2023-05-14T09:35:36.067Z,54.60
2023-05-14T09:36:36.060Z,55.09
2023-05-14T09:37:36.103Z,54.47
2023-05-14T09:38:36.012Z,55.17
2023-05-14T09:39:35.993Z,59.66
2023-05-14T09:40:36.000Z,59.59
2023-05-14T09:41:36.024Z,57.22
2023-05-14T09:42:35.999Z,58.05
2023-05-14T09:43:35.972Z,58.95
2023-05-14T09:44:35.974Z,62.08
2023-05-14T09:45:35.965Z,55.80
2023-05-14T09:46:35.954Z,57.80
2023-05-14T09:47:36.103Z,56.50
2023-05-14T09:48:35.948Z,59.50
2023-05-14T09:49:35.969Z,58.20
2023-05-14T09:50:35.926Z,62.11
2023-05-14T09:51:35.892Z,59.41
2023-05-14T09:52:35.878Z,61.21
2023-05-14T09:53:35.832Z,61.11
2023-05-14T09:54:35.880Z,58.50
2023-05-14T09:55:35.872Z,61.31
2023-05-14T09:56:35.832Z,63.42
2023-05-14T09:57:35.838Z,64.22
2023-05-14T09:58:35.847Z,61.41
2023-05-14T09:59:35.816Z,58.28
2023-05-14T10:00:36.537Z,57.17
2023-05-14T10:01:35.849Z,56.60
2023-05-14T10:02:35.817Z,60.41
2023-05-14T10:03:35.799Z,60.48
2023-05-14T10:04:36.104Z,60.38
2023-05-14T10:05:35.773Z,55.94
2023-05-14T10:06:35.726Z,56.45
2023-05-14T10:07:35.762Z,57.95
2023-05-14T10:08:35.758Z,56.98
2023-05-14T10:09:35.922Z,58.70
2023-05-14T10:10:35.709Z,61.21
2023-05-14T10:11:35.728Z,59.00
2023-05-14T10:12:35.668Z,56.23
2023-05-14T10:13:35.673Z,57.03
2023-05-14T10:14:35.676Z,58.43
2023-05-14T10:15:35.674Z,56.93
2023-05-14T10:16:35.764Z,59.33
2023-05-14T10:17:35.827Z,60.21
2023-05-14T10:18:35.733Z,61.51
2023-05-14T10:19:35.591Z,57.90
2023-05-14T10:20:35.585Z,56.20
2023-05-14T10:21:35.605Z,63.71
2023-05-14T10:22:35.562Z,59.61
2023-05-14T10:23:35.583Z,57.50
2023-05-14T10:24:35.613Z,55.80
2023-05-14T10:25:35.567Z,53.89
2023-05-14T10:26:35.559Z,54.70
2023-05-14T10:27:35.527Z,51.29
2023-05-14T10:28:35.548Z,53.19
2023-05-14T10:29:36.090Z,53.19
2023-05-14T10:30:35.561Z,59.41
2023-05-14T10:31:35.572Z,53.09
2023-05-14T10:32:35.502Z,60.88
2023-05-14T10:33:35.525Z,57.78
2023-05-14T10:34:35.437Z,55.57
2023-05-14T10:35:35.456Z,53.77
2023-05-14T10:36:35.541Z,55.77
2023-05-14T10:37:35.414Z,54.27
2023-05-14T10:38:35.469Z,57.78
2023-05-14T10:39:35.440Z,51.27
2023-05-14T10:40:35.400Z,52.77
2023-05-14T10:41:35.383Z,56.87
2023-05-14T10:42:35.398Z,53.37
2023-05-14T10:43:35.330Z,54.27
2023-05-14T10:44:35.392Z,52.57
2023-05-14T10:45:35.367Z,53.87
2023-05-14T10:46:35.363Z,54.47
2023-05-14T10:47:35.355Z,56.98
2023-05-14T10:48:35.308Z,56.17
2023-05-14T10:49:42.770Z,51.87
2023-05-14T10:50:35.309Z,53.47
2023-05-14T10:51:35.405Z,54.57
2023-05-14T10:52:35.304Z,53.44
2023-05-14T10:53:35.274Z,54.44
2023-05-14T10:54:35.245Z,54.97
2023-05-14T10:55:35.247Z,53.47
2023-05-14T10:56:35.217Z,57.15
2023-05-14T10:57:35.212Z,53.94
2023-05-14T10:58:35.258Z,51.44
2023-05-14T10:59:35.228Z,53.52
2023-05-14T11:00:35.180Z,53.12
2023-05-14T11:01:35.246Z,51.12
2023-05-14T11:02:35.213Z,54.22
2023-05-14T11:03:35.495Z,53.12
2023-05-14T11:04:35.177Z,56.82
2023-05-14T11:05:35.137Z,54.52
2023-05-14T11:06:35.108Z,59.22
2023-05-14T11:07:35.145Z,53.82
2023-05-14T11:08:35.125Z,59.15
2023-05-14T11:09:35.093Z,53.55
2023-05-14T11:10:35.153Z,53.55
2023-05-14T11:11:35.047Z,50.94
2023-05-14T11:12:35.091Z,53.14
2023-05-14T11:13:35.350Z,50.94
2023-05-14T11:14:35.042Z,56.15
2023-05-14T11:15:35.011Z,52.72
2023-05-14T11:16:35.076Z,55.02
2023-05-14T11:17:35.051Z,52.69
2023-05-14T11:18:35.014Z,57.87
2023-05-14T11:19:34.976Z,56.07
2023-05-14T11:20:35.614Z,53.04
2023-05-14T11:21:35.104Z,52.14
2023-05-14T11:22:34.978Z,49.85
2023-05-14T11:23:34.955Z,50.95
2023-05-14T11:24:34.925Z,50.47
2023-05-14T11:25:34.954Z,54.47
2023-05-14T11:26:35.072Z,50.87
2023-05-14T11:27:34.909Z,57.24
2023-05-14T11:28:34.893Z,55.94
2023-05-14T11:29:34.893Z,52.04
2023-05-14T11:30:34.888Z,53.74
2023-05-14T11:31:34.991Z,52.44
2023-05-14T11:32:34.891Z,53.84
2023-05-14T11:33:34.913Z,55.54
2023-05-14T11:34:34.865Z,53.34
2023-05-14T11:35:34.835Z,52.97
2023-05-14T11:36:34.842Z,52.17
2023-05-14T11:37:34.791Z,55.17
2023-05-14T11:38:34.784Z,52.17
2023-05-14T11:39:34.799Z,55.74
2023-05-14T11:40:35.664Z,53.12
2023-05-14T11:41:34.842Z,52.19
2023-05-14T11:42:34.747Z,49.40
2023-05-14T11:43:34.753Z,52.69
2023-05-14T11:44:34.732Z,55.58
2023-05-14T11:45:34.722Z,48.08
2023-05-14T11:46:34.752Z,46.26
2023-05-14T11:47:34.694Z,45.34
2023-05-14T11:48:34.733Z,47.11
2023-05-14T11:49:34.684Z,45.60
2023-05-14T11:50:34.719Z,48.50
2023-05-14T11:51:34.712Z,46.51
2023-05-14T11:52:34.651Z,46.20
2023-05-14T11:53:34.720Z,45.20
2023-05-14T11:54:34.619Z,46.49
2023-05-14T11:55:34.613Z,44.80
2023-05-14T11:56:34.628Z,46.42
2023-05-14T11:57:34.584Z,47.51
2023-05-14T11:58:34.586Z,46.64
2023-05-14T11:59:34.553Z,50.85
2023-05-14T12:00:34.603Z,52.04
2023-05-14T12:01:34.560Z,45.84
2023-05-14T12:02:34.701Z,46.61
2023-05-14T12:03:34.742Z,54.38
2023-05-14T12:04:34.583Z,48.63
2023-05-14T12:05:34.502Z,50.23
2023-05-14T12:06:34.538Z,49.75
2023-05-14T12:07:34.508Z,47.98
2023-05-14T12:08:34.483Z,51.50
2023-05-14T12:09:34.463Z,50.84
2023-05-14T12:10:34.447Z,51.77
2023-05-14T12:11:34.482Z,49.40
2023-05-14T12:12:34.425Z,53.62
2023-05-14T12:13:34.432Z,48.72
2023-05-14T12:14:34.422Z,51.72
2023-05-14T12:15:34.399Z,53.94
2023-05-14T12:16:36.223Z,53.64
2023-05-14T12:17:34.408Z,52.67
2023-05-14T12:18:34.506Z,51.17
2023-05-14T12:19:34.449Z,51.09
2023-05-14T12:20:34.382Z,51.09
2023-05-14T12:21:34.366Z,51.12
2023-05-14T12:22:36.405Z,52.22
2023-05-14T12:23:34.327Z,50.51
2023-05-14T12:24:34.352Z,51.42
2023-05-14T12:25:34.316Z,54.02
2023-05-14T12:26:34.298Z,51.12
2023-05-14T12:27:34.308Z,50.92
2023-05-14T12:28:36.941Z,53.72
2023-05-14T12:29:34.263Z,52.42
2023-05-14T12:30:34.340Z,53.42
2023-05-14T12:31:34.303Z,54.93
2023-05-14T12:32:34.328Z,52.72
2023-05-14T12:33:34.381Z,54.93
2023-05-14T12:34:36.563Z,54.80
2023-05-14T12:35:34.196Z,53.30
2023-05-14T12:36:34.212Z,52.89
2023-05-14T12:37:34.189Z,51.99
2023-05-14T12:38:34.181Z,52.82
2023-05-14T12:39:34.150Z,52.49
2023-05-14T12:40:34.159Z,54.90
2023-05-14T12:41:34.151Z,54.57
2023-05-14T12:42:34.149Z,54.94
2023-05-14T12:43:34.123Z,51.22
2023-05-14T12:44:34.113Z,51.02
2023-05-14T12:45:34.080Z,51.20
2023-05-14T12:46:34.139Z,53.59
2023-05-14T12:47:34.198Z,54.10
2023-05-14T12:48:34.093Z,51.89
2023-05-14T12:49:34.051Z,52.97
2023-05-14T12:50:34.063Z,51.67
2023-05-14T12:51:34.093Z,51.67
2023-05-14T12:52:38.639Z,52.97